Terminal Aerodrome Forecast
Issued by NWS

Home | Current Version | Previous Version | Graphics & Text | Print | Product List | Glossary On
Versions: 1 2 3 4 5 6 7 8 9 10 11 12 13 14 15 16 17 18 19 20 21 22 23 24
000
FTUS43 KFGF 280935 AAB
TAFBJI
TAF AMD
KBJI 280935Z 2810/2906 VRB04KT 2SM BR SCT005
      TEMPO 2810/2812 1/2SM FG OVC003
     FM281300 21007KT P6SM BKN250
     FM282000 20011G28KT P6SM FEW250
     FM290000 20009KT P6SM FEW250=

USA.gov is the U.S. government's official web portal to all federal, state and local government web resources and services.